Time;durP1;ratioP1;P1;durP2;ratioP2;P2;SDS_P1;SDS_P2;PMS_P1;PMS_P2;Temp;Humidity;BMP_temperature;BMP_pressure;BME280_temperature;BME280_humidity;BME280_pressure;Samples;Min_cycle;Max_cycle;Signal;HPM_P1;HPM_P2
2021/12/28 00:00:12;;;;;;;;;;;;;;;12.66;63.46;100146.88;5077740;28;19916;-79
2021/12/28 00:02:58;;;;;;;;;;;;;;;12.66;63.51;100149.59;5076453;28;20452;-80
2021/12/28 00:05:42;;;;;;;;;;;;;;;12.68;63.78;100144.63;5077430;28;19916;-80
2021/12/28 00:08:27;;;;;;;;;;;;;;;12.65;63.21;100148.00;5081994;28;19912;-80
2021/12/28 00:11:12;;;;;;;;;;;;;;;12.63;62.58;100153.03;5084652;28;19917;-79
2021/12/28 00:14:01;;;;;;;;;;;;;;;12.67;62.72;100147.69;5084988;28;19912;-80
2021/12/28 00:19:49;;;;;;;;;;;;;;;12.69;62.07;100140.75;5072175;28;19913;-80
2021/12/28 00:22:34;;;;;;;;;;;;;;;12.67;62.19;100139.50;5071600;28;19912;-80
2021/12/28 00:25:19;;;;;;;;;;;;;;;12.68;61.71;100128.25;5076173;28;19912;-80
2021/12/28 00:28:04;;;;;;;;;;;;;;;12.65;61.92;100136.31;5069916;28;19912;-78
2021/12/28 00:30:49;;;;;;;;;;;;;;;12.65;63.04;100141.75;5076883;28;19917;-79
2021/12/28 00:33:33;;;;;;;;;;;;;;;12.65;62.90;100142.56;5082550;28;19912;-80
2021/12/28 00:36:18;;;;;;;;;;;;;;;12.67;62.96;100137.56;5076952;28;19920;-78
2021/12/28 00:39:03;;;;;;;;;;;;;;;12.65;63.42;100133.56;5067995;28;19916;-79
2021/12/28 00:41:48;;;;;;;;;;;;;;;12.67;62.91;100131.31;5080190;28;19916;-80
2021/12/28 00:44:32;;;;;;;;;;;;;;;12.63;63.33;100127.69;5065677;28;19916;-79
2021/12/28 00:47:17;;;;;;;;;;;;;;;12.64;63.65;100124.63;5072202;28;19912;-79
2021/12/28 00:50:02;;;;;;;;;;;;;;;12.66;64.43;100129.72;5054625;28;19912;-80
2021/12/28 00:52:47;;;;;;;;;;;;;;;12.65;63.27;100119.94;5079767;28;19920;-79
2021/12/28 00:55:33;;;;;;;;;;;;;;;12.65;62.83;100120.75;5080288;28;19916;-78
2021/12/28 00:58:18;;;;;;;;;;;;;;;12.66;62.95;100116.88;5075700;28;19912;-80
2021/12/28 01:01:03;;;;;;;;;;;;;;;12.66;62.74;100122.34;5069308;28;19920;-79
2021/12/28 01:03:47;;;;;;;;;;;;;;;12.66;62.22;100119.59;5071024;28;19912;-79
2021/12/28 01:06:32;;;;;;;;;;;;;;;12.67;61.99;100104.03;5067398;28;20392;-80
2021/12/28 01:09:17;;;;;;;;;;;;;;;12.66;61.87;100122.34;5088732;28;19912;-80
2021/12/28 01:12:03;;;;;;;;;;;;;;;12.65;61.81;100134.38;5079189;28;19917;-79
2021/12/28 01:14:47;;;;;;;;;;;;;;;12.67;61.67;100125.84;5073260;28;19913;-79
2021/12/28 01:17:36;;;;;;;;;;;;;;;12.64;62.80;100127.34;5068497;28;19920;-80
2021/12/28 01:20:20;;;;;;;;;;;;;;;12.63;63.02;100133.94;5071717;28;20361;-79
2021/12/28 01:23:05;;;;;;;;;;;;;;;12.66;63.15;100135.16;5067079;28;20563;-80
2021/12/28 01:25:50;;;;;;;;;;;;;;;12.65;63.67;100137.09;5074819;28;19922;-80
2021/12/28 01:28:35;;;;;;;;;;;;;;;12.63;63.55;100139.41;5071776;28;20373;-80
2021/12/28 01:31:19;;;;;;;;;;;;;;;12.66;63.71;100146.09;5067034;28;19916;-80
2021/12/28 01:34:04;;;;;;;;;;;;;;;12.63;63.73;100142.13;5066697;28;19913;-78
2021/12/28 01:36:49;;;;;;;;;;;;;;;12.63;63.21;100141.31;5066818;28;20376;-79
2021/12/28 01:39:33;;;;;;;;;;;;;;;12.64;63.62;100140.19;5069815;28;19913;-79
2021/12/28 01:42:18;;;;;;;;;;;;;;;12.64;63.22;100149.19;5076166;28;19917;-79
2021/12/28 01:45:03;;;;;;;;;;;;;;;12.64;63.44;100149.19;5074925;28;19917;-79
2021/12/28 01:47:48;;;;;;;;;;;;;;;12.64;63.38;100146.44;5079550;28;19911;-79
2021/12/28 01:50:32;;;;;;;;;;;;;;;12.64;63.54;100146.44;5078256;28;19916;-79
2021/12/28 01:53:17;;;;;;;;;;;;;;;12.64;63.22;100153.84;5079971;28;19920;-80
2021/12/28 01:56:05;;;;;;;;;;;;;;;12.65;63.22;100155.41;5076926;28;20396;-79
2021/12/28 01:58:50;;;;;;;;;;;;;;;12.65;63.21;100152.66;5085216;28;20383;-79
2021/12/28 02:01:35;;;;;;;;;;;;;;;12.65;63.50;100150.75;5075300;28;19913;-79
2021/12/28 02:04:25;;;;;;;;;;;;;;;12.66;63.51;100146.09;5066261;28;19913;-79
2021/12/28 02:07:10;;;;;;;;;;;;;;;12.64;63.13;100151.91;5073052;28;20301;-79
2021/12/28 02:09:54;;;;;;;;;;;;;;;12.65;63.42;100145.28;5066472;28;19912;-79
2021/12/28 02:12:39;;;;;;;;;;;;;;;12.67;63.88;100148.47;5068005;28;19916;-80
2021/12/28 02:15:23;;;;;;;;;;;;;;;12.66;63.84;100138.69;5078273;28;19916;-80
2021/12/28 02:18:09;;;;;;;;;;;;;;;12.66;63.81;100144.16;5069199;28;20392;-79
2021/12/28 02:20:54;;;;;;;;;;;;;;;12.62;63.96;100140.53;5070166;28;20385;-79
2021/12/28 02:23:39;;;;;;;;;;;;;;;12.63;63.74;100142.13;5078568;28;19912;-78
2021/12/28 02:26:24;;;;;;;;;;;;;;;12.64;64.16;100141.00;5070172;28;19920;-79
2021/12/28 02:29:09;;;;;;;;;;;;;;;12.65;64.24;100139.81;5075121;28;19913;-79
2021/12/28 02:31:55;;;;;;;;;;;;;;;12.65;64.72;100142.56;5074816;28;19920;-80
2021/12/28 02:34:40;;;;;;;;;;;;;;;12.63;65.20;100138.59;5081927;28;19912;-80
2021/12/28 02:37:24;;;;;;;;;;;;;;;12.65;66.25;100136.31;5080387;28;19912;-79
2021/12/28 02:40:12;;;;;;;;;;;;;;;12.67;66.56;100134.84;5079334;28;19912;-80
2021/12/28 02:42:57;;;;;;;;;;;;;;;12.68;67.20;100125.53;5078235;28;19924;-80
2021/12/28 02:46:05;;;;;;;;;;;;;;;12.71;69.03;100119.38;5081423;28;20400;-80
2021/12/28 02:48:50;;;;;;;;;;;;;;;12.74;70.11;100104.25;5077712;28;19913;-80
2021/12/28 02:51:34;;;;;;;;;;;;;;;12.71;68.38;100094.81;5081866;28;19920;-80
2021/12/28 02:54:20;;;;;;;;;;;;;;;12.71;68.29;100091.28;5079257;28;20381;-79
2021/12/28 02:57:05;;;;;;;;;;;;;;;12.70;67.33;100087.75;5077906;28;20542;-79
2021/12/28 02:59:50;;;;;;;;;;;;;;;12.67;65.94;100080.28;5084619;28;19913;-80
2021/12/28 03:02:35;;;;;;;;;;;;;;;12.66;65.97;100066.97;5064855;28;20373;-79
2021/12/28 03:05:19;;;;;;;;;;;;;;;12.63;65.25;100054.84;5059256;28;19912;-81
2021/12/28 03:08:04;;;;;;;;;;;;;;;12.63;65.06;100054.84;5072017;28;20380;-80
2021/12/28 03:10:49;;;;;;;;;;;;;;;12.62;64.78;100049.72;5080368;28;19967;-79
2021/12/28 03:13:37;;;;;;;;;;;;;;;12.63;64.97;100051.31;5078917;28;19916;-80
2021/12/28 03:16:22;;;;;;;;;;;;;;;12.64;65.60;100050.97;5074193;28;19913;-80
2021/12/28 03:19:07;;;;;;;;;;;;;;;12.66;66.74;100051.41;5083385;28;19912;-80
2021/12/28 03:21:52;;;;;;;;;;;;;;;12.64;66.39;100048.25;5066472;28;19916;-81
2021/12/28 03:24:36;;;;;;;;;;;;;;;12.62;66.44;100047.78;5077021;28;19912;-80
2021/12/28 03:27:21;;;;;;;;;;;;;;;12.63;65.73;100046.66;5082964;28;19912;-79
2021/12/28 03:30:07;;;;;;;;;;;;;;;12.65;67.56;100038.91;5080159;28;19912;-80
2021/12/28 03:32:51;;;;;;;;;;;;;;;12.64;67.07;100029.16;5058117;28;19917;-79
2021/12/28 03:35:36;;;;;;;;;;;;;;;12.64;65.92;100023.69;5080075;28;19912;-79
2021/12/28 03:38:21;;;;;;;;;;;;;;;12.63;65.82;100019.38;5080211;28;19912;-78
2021/12/28 03:41:07;;;;;;;;;;;;;;;12.62;65.75;100023.25;5078333;28;19912;-79
2021/12/28 03:43:52;;;;;;;;;;;;;;;12.63;65.91;100029.50;5080998;28;19912;-79
2021/12/28 03:46:37;;;;;;;;;;;;;;;12.61;65.04;100035.28;5077641;28;19912;-78
2021/12/28 03:49:21;;;;;;;;;;;;;;;12.63;66.16;100035.75;5078230;28;19912;-79
2021/12/28 03:52:06;;;;;;;;;;;;;;;12.64;67.94;100037.34;5082169;28;19917;-78
2021/12/28 03:54:51;;;;;;;;;;;;;;;12.63;67.88;100045.84;5079550;28;19913;-79
2021/12/28 03:57:35;;;;;;;;;;;;;;;12.63;67.07;100054.03;5078323;28;19912;-79
2021/12/28 04:00:21;;;;;;;;;;;;;;;12.63;67.61;100057.56;5081696;28;19912;-79
2021/12/28 04:03:06;;;;;;;;;;;;;;;12.61;67.42;100056.31;5080229;28;19912;-79
2021/12/28 04:05:51;;;;;;;;;;;;;;;12.63;68.91;100063.03;5077345;28;19912;-79
2021/12/28 04:08:37;;;;;;;;;;;;;;;12.65;71.00;100077.09;5080925;28;19912;-78
2021/12/28 04:14:07;;;;;;;;;;;;;;;12.65;68.46;100059.94;5077981;28;19912;-79
2021/12/28 04:16:51;;;;;;;;;;;;;;;12.65;69.58;100066.19;5076107;28;19916;-79
2021/12/28 04:19:35;;;;;;;;;;;;;;;12.65;69.15;100065.38;5073983;28;19912;-79
2021/12/28 04:22:20;;;;;;;;;;;;;;;12.66;70.94;100075.97;5078641;28;19912;-79
2021/12/28 04:25:05;;;;;;;;;;;;;;;12.66;71.59;100081.41;5076605;28;20296;-79
2021/12/28 04:27:50;;;;;;;;;;;;;;;12.65;70.76;100082.53;5079556;28;19912;-79
2021/12/28 04:30:34;;;;;;;;;;;;;;;12.64;68.96;100091.91;5072749;28;19912;-79
2021/12/28 04:33:19;;;;;;;;;;;;;;;12.61;66.99;100098.03;5076435;28;19916;-79
2021/12/28 04:36:08;;;;;;;;;;;;;;;12.59;66.52;100094.84;5078395;28;19916;-79
2021/12/28 04:38:52;;;;;;;;;;;;;;;12.61;67.92;100113.59;5078032;28;19912;-80
2021/12/28 04:41:37;;;;;;;;;;;;;;;12.55;68.52;100123.94;5076989;28;19912;-79
2021/12/28 04:44:24;;;;;;;;;;;;;;;12.57;70.65;100118.16;5073071;28;20312;-79
2021/12/28 04:47:09;;;;;;;;;;;;;;;12.53;71.55;100109.84;5078335;28;19912;-79
2021/12/28 04:49:53;;;;;;;;;;;;;;;12.56;69.27;100092.78;5077451;28;19916;-79
2021/12/28 04:52:39;;;;;;;;;;;;;;;12.56;67.41;100078.38;5081165;28;19916;-79
2021/12/28 04:55:23;;;;;;;;;;;;;;;12.55;66.30;100074.03;5078713;28;19917;-79
2021/12/28 04:58:08;;;;;;;;;;;;;;;12.56;66.39;100065.53;5077508;28;19912;-79
2021/12/28 05:00:53;;;;;;;;;;;;;;;12.54;66.06;100062.38;5082247;28;19912;-79
2021/12/28 05:03:37;;;;;;;;;;;;;;;12.54;66.26;100076.00;5080389;28;19913;-79
2021/12/28 05:06:21;;;;;;;;;;;;;;;12.53;66.33;100079.84;5077920;28;19913;-80
2021/12/28 05:09:08;;;;;;;;;;;;;;;12.53;66.99;100077.13;5079677;28;19916;-80
2021/12/28 05:11:53;;;;;;;;;;;;;;;12.55;66.37;100087.69;5074592;28;20531;-79
2021/12/28 05:14:41;;;;;;;;;;;;;;;12.56;68.13;100078.38;5071891;28;19912;-79
2021/12/28 05:17:27;;;;;;;;;;;;;;;12.57;67.79;100088.94;5083458;28;19916;-79
2021/12/28 05:20:12;;;;;;;;;;;;;;;12.54;66.97;100076.00;5083055;28;19912;-79
2021/12/28 05:22:57;;;;;;;;;;;;;;;12.54;65.71;100086.91;5081970;28;19912;-79
2021/12/28 05:25:41;;;;;;;;;;;;;;;12.53;67.25;100096.22;5082530;28;19916;-78
2021/12/28 05:28:26;;;;;;;;;;;;;;;12.52;66.83;100100.09;5078833;28;20373;-79
2021/12/28 05:31:10;;;;;;;;;;;;;;;12.50;67.19;100096.09;5079842;28;19912;-79
2021/12/28 05:33:55;;;;;;;;;;;;;;;12.50;67.08;100096.88;5079712;28;19912;-79
2021/12/28 05:36:39;;;;;;;;;;;;;;;12.51;68.22;100092.22;5079290;28;19913;-79
2021/12/28 05:39:24;;;;;;;;;;;;;;;12.48;66.30;100095.66;5072706;28;19912;-78
2021/12/28 05:42:09;;;;;;;;;;;;;;;12.47;65.72;100077.69;5078511;28;19913;-80
2021/12/28 05:44:53;;;;;;;;;;;;;;;12.44;66.40;100079.19;5081585;28;19912;-79
2021/12/28 05:47:38;;;;;;;;;;;;;;;12.40;67.23;100081.00;5080510;28;19912;-80
2021/12/28 05:50:22;;;;;;;;;;;;;;;12.43;70.20;100083.06;5069332;28;19921;-79
2021/12/28 05:53:07;;;;;;;;;;;;;;;12.43;69.75;100072.16;5074774;28;19916;-79
2021/12/28 05:55:51;;;;;;;;;;;;;;;12.42;68.23;100078.72;5076832;28;19913;-80
2021/12/28 05:58:36;;;;;;;;;;;;;;;12.39;68.16;100076.72;5082483;28;20308;-80
2021/12/28 06:01:20;;;;;;;;;;;;;;;12.37;67.01;100060.69;5081123;28;20300;-79
2021/12/28 06:04:05;;;;;;;;;;;;;;;12.38;67.18;100056.03;5080863;28;20552;-80
2021/12/28 06:06:49;;;;;;;;;;;;;;;12.38;67.70;100056.03;5080435;28;19912;-79
2021/12/28 06:09:34;;;;;;;;;;;;;;;12.37;66.72;100065.34;5081797;28;19912;-80
2021/12/28 06:12:18;;;;;;;;;;;;;;;12.37;66.04;100057.16;5091196;28;19916;-79
2021/12/28 06:15:03;;;;;;;;;;;;;;;12.36;67.34;100063.75;5089445;28;19912;-80
2021/12/28 06:17:47;;;;;;;;;;;;;;;12.35;67.20;100073.06;5091280;28;19916;-79
2021/12/28 06:20:32;;;;;;;;;;;;;;;12.35;67.00;100075.78;5071773;28;19916;-79
2021/12/28 06:23:17;;;;;;;;;;;;;;;12.33;66.26;100076.13;5089071;28;19916;-79
2021/12/28 06:26:02;;;;;;;;;;;;;;;12.34;66.35;100079.66;5083820;28;19916;-79
2021/12/28 06:28:46;;;;;;;;;;;;;;;12.31;67.07;100074.88;5060669;28;20369;-80
2021/12/28 06:31:30;;;;;;;;;;;;;;;12.27;66.11;100077.50;5074496;28;20316;-80
2021/12/28 06:34:15;;;;;;;;;;;;;;;12.26;65.24;100075.91;5076678;28;19920;-80
2021/12/28 06:36:59;;;;;;;;;;;;;;;12.28;68.15;100086.47;5062962;28;19912;-79
2021/12/28 06:39:44;;;;;;;;;;;;;;;12.25;67.87;100087.13;5079640;28;19917;-80
2021/12/28 06:42:28;;;;;;;;;;;;;;;12.22;68.22;100075.00;5077944;28;19912;-80
2021/12/28 06:45:13;;;;;;;;;;;;;;;12.23;69.75;100070.34;5081279;28;19913;-80
2021/12/28 06:47:57;;;;;;;;;;;;;;;12.22;68.70;100079.66;5078854;28;19912;-80
2021/12/28 06:50:41;;;;;;;;;;;;;;;12.20;68.55;100081.91;5077610;28;19912;-79
2021/12/28 06:53:26;;;;;;;;;;;;;;;12.21;67.95;100089.75;5078350;28;19917;-79
2021/12/28 06:56:10;;;;;;;;;;;;;;;12.26;70.66;100099.66;5078593;28;19913;-79
2021/12/28 06:58:54;;;;;;;;;;;;;;;12.29;72.30;100096.25;5069881;28;19916;-79
2021/12/28 07:01:39;;;;;;;;;;;;;;;12.29;71.11;100096.25;5081341;28;20296;-79
2021/12/28 07:04:23;;;;;;;;;;;;;;;12.27;68.82;100090.34;5059926;28;19913;-80
2021/12/28 07:07:08;;;;;;;;;;;;;;;12.27;68.26;100093.84;5058061;28;19912;-81
2021/12/28 07:09:52;;;;;;;;;;;;;;;12.26;68.61;100096.91;5080321;28;19913;-80
2021/12/28 07:12:37;;;;;;;;;;;;;;;12.27;69.36;100093.06;5077734;28;19916;-79
2021/12/28 07:15:21;;;;;;;;;;;;;;;12.25;68.76;100089.88;5077339;28;19912;-79
2021/12/28 07:18:05;;;;;;;;;;;;;;;12.25;68.81;100100.78;5071937;28;19912;-79
2021/12/28 07:20:50;;;;;;;;;;;;;;;12.26;68.97;100096.91;5079669;28;20292;-79
2021/12/28 07:23:34;;;;;;;;;;;;;;;10.87;66.77;100101.44;5071823;28;19916;-82
2021/12/28 07:26:19;;;;;;;;;;;;;;;9.69;71.53;100111.44;5075400;28;19912;-82
2021/12/28 07:29:04;;;;;;;;;;;;;;;9.10;74.34;100132.09;5065090;28;20515;-82
2021/12/28 07:31:49;;;;;;;;;;;;;;;8.80;76.65;100136.56;5077086;28;20369;-82
2021/12/28 07:34:33;;;;;;;;;;;;;;;8.86;77.39;100141.50;5072176;28;20405;-81
2021/12/28 07:37:17;;;;;;;;;;;;;;;8.63;77.62;100134.63;5085152;28;19912;-81
2021/12/28 07:40:02;;;;;;;;;;;;;;;8.05;79.76;100135.69;5076343;28;19911;-81
2021/12/28 07:42:47;;;;;;;;;;;;;;;7.56;82.34;100139.44;5081165;28;19912;-82
2021/12/28 07:45:32;;;;;;;;;;;;;;;7.64;82.72;100132.47;5083360;28;19916;-81
2021/12/28 07:48:17;;;;;;;;;;;;;;;7.69;82.03;100138.53;5081772;28;19913;-80
2021/12/28 07:51:01;;;;;;;;;;;;;;;7.56;83.77;100138.63;5075755;28;19912;-81
2021/12/28 07:53:46;;;;;;;;;;;;;;;7.81;82.63;100127.16;5082823;28;19917;-82
2021/12/28 07:56:30;;;;;;;;;;;;;;;7.70;83.36;100120.41;5076346;28;19912;-82
2021/12/28 07:59:14;;;;;;;;;;;;;;;8.03;83.22;100129.78;5077540;28;19916;-82
2021/12/28 08:01:59;;;;;;;;;;;;;;;7.55;83.68;100135.13;5078334;28;19917;-78
2021/12/28 08:04:43;;;;;;;;;;;;;;;7.87;83.61;100144.88;5077424;28;19912;-81
2021/12/28 08:07:28;;;;;;;;;;;;;;;8.22;81.55;100134.97;5063449;28;19920;-81
2021/12/28 08:10:14;;;;;;;;;;;;;;;8.11;81.20;100122.81;5065368;28;20327;-82
2021/12/28 08:12:58;;;;;;;;;;;;;;;8.10;82.31;100123.94;5068680;28;19916;-81
2021/12/28 08:15:43;;;;;;;;;;;;;;;8.33;81.98;100135.53;5047912;28;19912;-81
2021/12/28 08:18:28;;;;;;;;;;;;;;;8.74;79.64;100135.09;5074539;28;19912;-80
2021/12/28 08:21:12;;;;;;;;;;;;;;;8.91;78.47;100141.34;5080657;28;19912;-81
2021/12/28 08:23:57;;;;;;;;;;;;;;;9.08;77.71;100134.34;5076098;28;19912;-81
2021/12/28 08:26:41;;;;;;;;;;;;;;;9.00;77.97;100116.94;5072338;28;19912;-81
2021/12/28 08:29:26;;;;;;;;;;;;;;;9.02;77.84;100115.53;5074717;28;19912;-80
2021/12/28 08:32:11;;;;;;;;;;;;;;;8.85;77.89;100118.22;5068795;28;19916;-80
2021/12/28 08:34:55;;;;;;;;;;;;;;;8.63;79.15;100123.78;5068497;28;20285;-82
2021/12/28 08:37:40;;;;;;;;;;;;;;;8.70;78.39;100136.84;5074073;28;20365;-82
2021/12/28 08:40:24;;;;;;;;;;;;;;;8.42;79.60;100147.19;5069854;28;19916;-83
2021/12/28 08:43:10;;;;;;;;;;;;;;;8.37;81.07;100147.31;5071775;28;19967;-82
2021/12/28 08:45:55;;;;;;;;;;;;;;;8.49;80.28;100155.63;5069056;28;19916;-83
2021/12/28 08:48:39;;;;;;;;;;;;;;;8.31;80.84;100151.28;5080620;28;20296;-83
2021/12/28 08:51:24;;;;;;;;;;;;;;;8.36;80.91;100157.34;5080311;28;19912;-82
2021/12/28 08:54:08;;;;;;;;;;;;;;;8.38;81.26;100149.69;5086718;28;19916;-83
2021/12/28 08:56:52;;;;;;;;;;;;;;;8.62;79.93;100141.16;5082223;28;19913;-81
2021/12/28 08:59:37;;;;;;;;;;;;;;;8.75;79.00;100134.00;5085797;28;20283;-82
2021/12/28 09:02:21;;;;;;;;;;;;;;;8.43;80.39;100138.72;5074524;28;19912;-81
2021/12/28 09:05:06;;;;;;;;;;;;;;;8.28;81.69;100135.63;5088544;28;20288;-83
2021/12/28 09:07:51;;;;;;;;;;;;;;;8.23;82.59;100141.19;5084964;28;19912;-85
2021/12/28 09:10:36;;;;;;;;;;;;;;;8.15;82.85;100132.72;5071182;28;20392;-83
2021/12/28 09:13:20;;;;;;;;;;;;;;;8.42;81.89;100150.69;5079808;28;19916;-85
2021/12/28 09:16:27;;;;;;;;;;;;;;;8.54;80.93;100145.44;5075422;28;19916;-87
2021/12/28 09:19:11;;;;;;;;;;;;;;;8.72;80.40;100164.47;5084329;28;19920;-86
2021/12/28 09:21:56;;;;;;;;;;;;;;;8.82;79.03;100170.38;5084465;28;19912;-84
2021/12/28 09:24:40;;;;;;;;;;;;;;;8.66;79.97;100168.44;5075478;28;20288;-82
2021/12/28 09:27:24;;;;;;;;;;;;;;;8.61;80.21;100161.25;5078769;28;19916;-82
2021/12/28 09:30:09;;;;;;;;;;;;;;;8.58;80.33;100170.78;5079987;28;19912;-82
2021/12/28 09:32:54;;;;;;;;;;;;;;;8.38;81.13;100171.38;5084252;28;19916;-82
2021/12/28 09:35:38;;;;;;;;;;;;;;;8.44;81.00;100169.31;5083414;28;19917;-81
2021/12/28 09:38:24;;;;;;;;;;;;;;;8.53;81.50;100160.09;5089338;28;20361;-82
2021/12/28 09:41:08;;;;;;;;;;;;;;;9.92;80.17;100158.97;5094602;28;19913;-83
2021/12/28 09:43:53;;;;;;;;;;;;;;;10.09;74.93;100160.84;5077927;28;19916;-77
2021/12/28 09:46:38;;;;;;;;;;;;;;;9.47;77.37;100155.06;5075241;28;19912;-79
2021/12/28 09:49:22;;;;;;;;;;;;;;;9.17;77.68;100146.78;5074060;28;20067;-79
2021/12/28 09:52:07;;;;;;;;;;;;;;;9.00;78.62;100155.72;5079265;28;19916;-78
2021/12/28 09:54:51;;;;;;;;;;;;;;;8.94;79.59;100161.59;5072117;28;19913;-79
2021/12/28 09:57:36;;;;;;;;;;;;;;;9.28;78.41;100158.91;5078232;28;19916;-79
2021/12/28 10:00:22;;;;;;;;;;;;;;;9.26;77.53;100141.34;5071468;28;20308;-79
2021/12/28 10:03:07;;;;;;;;;;;;;;;9.42;77.13;100134.31;5077634;28;19912;-79
2021/12/28 10:05:51;;;;;;;;;;;;;;;9.43;77.76;100130.50;5066805;28;19912;-79
2021/12/28 10:08:36;;;;;;;;;;;;;;;9.52;76.44;100131.28;5063258;28;19920;-80
2021/12/28 10:11:30;;;;;;;;;;;;;;;9.29;77.40;100130.69;5074296;28;19920;-79
2021/12/28 10:14:33;;;;;;;;;;;;;;;9.26;78.37;100127.78;5073952;28;20578;-79
2021/12/28 10:17:23;;;;;;;;;;;;;;;9.13;79.80;100129.56;5073197;28;21132;-79
2021/12/28 10:20:09;;;;;;;;;;;;;;;9.19;79.58;100122.88;5073498;28;19912;-80
2021/12/28 10:22:58;;;;;;;;;;;;;;;9.32;78.88;100121.88;5069515;28;19913;-80
2021/12/28 10:25:45;;;;;;;;;;;;;;;9.51;77.45;100135.09;5071657;28;19913;-80
2021/12/28 10:28:31;;;;;;;;;;;;;;;9.50;77.82;100146.31;5072152;28;20404;-79
2021/12/28 10:31:20;;;;;;;;;;;;;;;9.39;77.64;100126.84;5072806;28;19913;-79
2021/12/28 10:34:04;;;;;;;;;;;;;;;9.41;77.51;100128.09;5069072;28;19917;-79
2021/12/28 10:36:49;;;;;;;;;;;;;;;9.49;79.64;100129.22;5073136;28;19912;-81
2021/12/28 10:39:46;;;;;;;;;;;;;;;9.58;80.29;100148.19;5067634;28;20289;-81
2021/12/28 10:42:43;;;;;;;;;;;;;;;9.70;80.66;100151.81;5075050;28;19913;-80
2021/12/28 10:45:31;;;;;;;;;;;;;;;9.85;80.95;100136.97;5074165;28;19912;-80
2021/12/28 10:48:17;;;;;;;;;;;;;;;9.96;80.99;100135.47;5078416;28;19912;-80
2021/12/28 10:51:04;;;;;;;;;;;;;;;10.06;80.81;100124.22;5071141;28;19912;-81
2021/12/28 10:56:49;;;;;;;;;;;;;;;10.31;79.75;100121.78;5064292;28;19912;-82
2021/12/28 10:59:34;;;;;;;;;;;;;;;10.39;79.32;100123.63;5075150;28;19912;-80
2021/12/28 11:02:22;;;;;;;;;;;;;;;10.47;77.99;100120.06;5058376;28;20476;-80
2021/12/28 11:05:26;;;;;;;;;;;;;;;10.54;77.78;100118.44;5084387;28;19920;-81
2021/12/28 11:08:14;;;;;;;;;;;;;;;10.61;78.23;100116.00;5080074;28;19920;-81
2021/12/28 11:11:01;;;;;;;;;;;;;;;10.68;77.49;100116.25;5075151;28;19912;-80
2021/12/28 11:13:46;;;;;;;;;;;;;;;10.74;76.95;100114.16;5080701;28;19916;-80
2021/12/28 11:16:31;;;;;;;;;;;;;;;10.81;77.05;100111.72;5088198;28;19912;-81
2021/12/28 11:19:22;;;;;;;;;;;;;;;10.86;76.80;100106.06;5079981;28;19913;-80
2021/12/28 11:22:09;;;;;;;;;;;;;;;10.92;75.54;100107.44;5087920;28;19916;-80
2021/12/28 11:24:55;;;;;;;;;;;;;;;10.96;75.54;100102.94;5087408;28;19920;-80
2021/12/28 11:27:39;;;;;;;;;;;;;;;11.06;75.66;100088.13;5089142;28;19912;-80
2021/12/28 11:30:23;;;;;;;;;;;;;;;11.13;74.88;100089.19;5083458;28;19912;-80
2021/12/28 11:33:08;;;;;;;;;;;;;;;11.17;73.77;100083.88;5092051;28;19916;-81
2021/12/28 11:35:53;;;;;;;;;;;;;;;11.23;74.18;100098.06;5085807;28;19916;-85
2021/12/28 11:38:44;;;;;;;;;;;;;;;11.28;76.75;100101.38;5071333;28;19913;-87
2021/12/28 11:41:29;;;;;;;;;;;;;;;11.31;75.30;100099.91;5081389;28;20293;-84
2021/12/28 11:44:15;;;;;;;;;;;;;;;11.35;73.54;100098.09;5068422;28;19912;-87
2021/12/28 11:47:00;;;;;;;;;;;;;;;11.36;72.75;100089.63;5075412;28;19912;-87
2021/12/28 11:49:46;;;;;;;;;;;;;;;11.41;73.97;100088.59;5080161;28;20408;-87
2021/12/28 11:52:30;;;;;;;;;;;;;;;11.44;75.19;100082.47;5081554;28;19916;-87
2021/12/28 11:55:15;;;;;;;;;;;;;;;11.47;74.98;100071.72;5079784;28;19920;-82
2021/12/28 11:57:59;;;;;;;;;;;;;;;11.51;73.63;100061.75;5079048;28;19920;-82
2021/12/28 12:00:44;;;;;;;;;;;;;;;11.56;73.04;100056.09;5072910;28;19912;-82
2021/12/28 12:03:32;;;;;;;;;;;;;;;11.58;72.71;100053.81;5070993;28;19916;-82
2021/12/28 12:06:17;;;;;;;;;;;;;;;11.62;72.03;100056.66;5074074;28;19912;-82
2021/12/28 12:09:02;;;;;;;;;;;;;;;11.64;71.63;100064.47;5073434;28;19912;-81
2021/12/28 12:12:05;;;;;;;;;;;;;;;11.65;70.98;100039.63;5069216;28;19916;-82
2021/12/28 12:14:50;;;;;;;;;;;;;;;11.68;71.66;100035.47;5070009;28;19916;-82
2021/12/28 12:17:40;;;;;;;;;;;;;;;11.72;71.37;100029.00;5067151;28;20447;-82
2021/12/28 12:20:30;;;;;;;;;;;;;;;11.76;72.24;100023.69;5075365;28;19920;-82
2021/12/28 12:23:18;;;;;;;;;;;;;;;11.71;72.06;100026.59;5073981;28;19912;-82
2021/12/28 12:26:04;;;;;;;;;;;;;;;11.77;71.32;100020.63;5057512;28;19920;-82
2021/12/28 12:28:50;;;;;;;;;;;;;;;11.68;72.24;100016.41;5072651;28;19912;-82
2021/12/28 12:31:36;;;;;;;;;;;;;;;11.76;72.58;100007.34;5079071;28;19916;-82
2021/12/28 12:34:29;;;;;;;;;;;;;;;11.85;71.53;100008.81;5081616;28;19916;-81
2021/12/28 12:37:15;;;;;;;;;;;;;;;11.88;70.81;99997.25;5078462;28;19913;-82
2021/12/28 12:40:00;;;;;;;;;;;;;;;11.92;71.43;100002.81;5072729;28;19913;-81
2021/12/28 12:43:04;;;;;;;;;;;;;;;11.94;71.56;100003.25;5072842;28;19917;-81
2021/12/28 12:45:56;;;;;;;;;;;;;;;11.91;71.63;100004.72;5073746;28;20320;-83
2021/12/28 12:48:40;;;;;;;;;;;;;;;11.94;71.37;100003.25;5070383;28;19912;-81
2021/12/28 12:51:26;;;;;;;;;;;;;;;11.99;71.78;100008.47;5081992;28;19912;-81
2021/12/28 12:54:34;;;;;;;;;;;;;;;11.98;71.62;100006.91;5076772;28;19916;-82
2021/12/28 12:57:20;;;;;;;;;;;;;;;12.03;72.06;99995.75;5074258;28;19912;-82
2021/12/28 13:00:16;;;;;;;;;;;;;;;12.08;71.29;99986.56;5076663;28;19916;-82
2021/12/28 13:03:01;;;;;;;;;;;;;;;12.09;71.49;99990.88;5079357;28;19924;-81
2021/12/28 13:05:46;;;;;;;;;;;;;;;12.04;71.71;99982.94;5077789;28;19916;-82
2021/12/28 13:08:30;;;;;;;;;;;;;;;12.07;70.91;99974.06;5078527;28;20372;-83
2021/12/28 13:11:27;;;;;;;;;;;;;;;12.10;71.33;99978.81;5071166;28;19920;-81
2021/12/28 13:14:12;;;;;;;;;;;;;;;12.16;70.31;99969.28;5078409;28;19921;-81
2021/12/28 13:16:57;;;;;;;;;;;;;;;12.14;70.67;99985.19;5077864;28;19912;-80
2021/12/28 13:19:54;;;;;;;;;;;;;;;12.15;70.67;99994.94;5080017;28;19912;-81
2021/12/28 13:22:40;;;;;;;;;;;;;;;12.17;70.84;100000.84;5072521;28;19916;-81
2021/12/28 13:25:45;;;;;;;;;;;;;;;12.26;70.13;99990.59;5072530;28;20460;-82
2021/12/28 13:28:30;;;;;;;;;;;;;;;12.32;71.11;99997.41;5080881;28;19916;-81
2021/12/28 13:31:21;;;;;;;;;;;;;;;12.38;71.15;99985.13;5081741;28;19920;-80
2021/12/28 13:34:05;;;;;;;;;;;;;;;12.41;71.09;99979.78;5079020;28;19920;-80
2021/12/28 13:36:51;;;;;;;;;;;;;;;12.44;71.25;99983.75;5078410;28;19913;-81
2021/12/28 13:39:41;;;;;;;;;;;;;;;12.52;71.15;99998.38;5079600;28;19916;-81
2021/12/28 13:42:26;;;;;;;;;;;;;;;12.48;70.36;100001.00;5076084;28;19912;-81
2021/12/28 13:45:14;;;;;;;;;;;;;;;12.54;71.24;99987.94;5081234;28;19920;-78
2021/12/28 13:47:59;;;;;;;;;;;;;;;12.61;71.73;99986.19;5077312;28;19912;-78
2021/12/28 13:51:04;;;;;;;;;;;;;;;12.60;72.28;99986.53;5088778;28;19912;-79
2021/12/28 13:53:49;;;;;;;;;;;;;;;12.71;72.51;99982.97;5073341;28;19920;-79
2021/12/28 13:56:38;;;;;;;;;;;;;;;12.72;71.85;99991.94;5074829;28;20304;-78
2021/12/28 13:59:23;;;;;;;;;;;;;;;12.84;73.09;99989.97;5069686;28;19912;-80
2021/12/28 14:02:12;;;;;;;;;;;;;;;12.83;71.21;99982.94;5061279;28;19912;-81
2021/12/28 14:04:57;;;;;;;;;;;;;;;12.81;71.12;99971.56;5073839;28;19913;-81
2021/12/28 14:07:42;;;;;;;;;;;;;;;12.83;68.50;99974.75;5074763;28;19916;-80
2021/12/28 14:10:28;;;;;;;;;;;;;;;12.79;67.97;99982.03;5063922;28;19912;-80
2021/12/28 14:13:14;;;;;;;;;;;;;;;12.85;67.60;99974.38;5069798;28;19917;-79
2021/12/28 14:16:02;;;;;;;;;;;;;;;12.74;67.71;99976.84;5072913;28;19912;-80
2021/12/28 14:18:51;;;;;;;;;;;;;;;12.74;67.88;99986.94;5075591;28;19920;-81
2021/12/28 14:21:35;;;;;;;;;;;;;;;12.71;68.75;99993.88;5071731;28;20404;-79
2021/12/28 14:24:20;;;;;;;;;;;;;;;12.74;68.79;99992.41;5068301;28;19913;-81